Time;durP1;ratioP1;P1;durP2;ratioP2;P2;SDS_P1;SDS_P2;PMS_P1;PMS_P2;Temp;Humidity;BMP_temperature;BMP_pressure;BME280_temperature;BME280_humidity;BME280_pressure;Samples;Min_cycle;Max_cycle;Signal;HPM_P1;HPM_P2
2022/02/05 00:06:00;;;;;;;2.03;1.17;;;6.50;91.40;;;;;;5098014;28;20456;-39
2022/02/05 00:40:18;;;;;;;2.10;1.13;;;5.80;86.90;;;;;;5117760;28;20420;-38
2022/02/05 00:42:44;;;;;;;3.00;1.40;;;5.80;86.30;;;;;;5102676;28;20501;-39
2022/02/05 00:45:11;;;;;;;2.40;1.40;;;5.70;85.80;;;;;;5118467;28;20460;-40
2022/02/05 00:47:41;;;;;;;3.73;1.27;;;5.60;85.60;;;;;;5118318;28;20178;-39
2022/02/05 00:50:13;;;;;;;2.20;1.30;;;5.50;85.90;;;;;;5098110;28;20487;-39
2022/02/05 00:52:40;;;;;;;1.90;1.40;;;5.50;86.20;;;;;;5117964;28;20414;-39
2022/02/05 00:55:10;;;;;;;2.20;1.40;;;5.40;86.30;;;;;;5118126;28;20428;-40
2022/02/05 00:58:02;;;;;;;2.03;1.50;;;5.30;86.40;;;;;;5117235;28;20428;-39
2022/02/05 01:00:25;;;;;;;3.00;1.37;;;5.30;86.90;;;;;;5116168;28;20429;-39
2022/02/05 01:02:51;;;;;;;1.80;1.30;;;5.20;87.30;;;;;;5118235;28;20555;-38
2022/02/05 01:05:17;;;;;;;4.77;1.97;;;5.10;87.30;;;;;;5118161;28;20228;-38
2022/02/05 01:07:43;;;;;;;3.90;1.60;;;5.00;87.60;;;;;;5116576;28;20645;-39
2022/02/05 01:10:09;;;;;;;3.53;1.17;;;5.00;87.90;;;;;;5100055;28;20559;-38
2022/02/05 01:12:37;;;;;;;1.70;1.37;;;5.00;88.30;;;;;;5116592;28;20529;-38
2022/02/05 01:15:04;;;;;;;4.50;1.60;;;4.90;88.20;;;;;;5118061;28;20427;-40
2022/02/05 01:17:39;;;;;;;2.07;1.40;;;4.90;88.50;;;;;;5117936;28;20418;-40
2022/02/05 01:22:40;;;;;;;1.60;1.20;;;4.80;88.60;;;;;;5099965;28;20432;-40
2022/02/05 01:25:06;;;;;;;1.87;1.27;;;4.80;88.70;;;;;;5119003;28;20408;-41
2022/02/05 01:27:50;;;;;;;3.87;1.50;;;4.80;88.90;;;;;;5117063;28;20465;-40
2022/02/05 01:30:30;;;;;;;2.03;1.33;;;4.70;88.80;;;;;;5118377;28;20452;-38
2022/02/05 01:35:45;;;;;;;4.00;1.30;;;4.60;88.90;;;;;;5118533;28;20421;-40
2022/02/05 01:52:30;;;;;;;2.30;1.47;;;4.50;89.50;;;;;;5121098;28;20440;-39
2022/02/05 01:55:29;;;;;;;2.50;1.10;;;4.50;89.60;;;;;;5122109;28;20790;-39
2022/02/05 01:58:14;;;;;;;1.90;1.40;;;4.50;89.80;;;;;;5109112;28;20433;-39
2022/02/05 02:22:36;;;;;;;2.33;1.70;;;4.20;90.00;;;;;;5120362;28;20456;-40
2022/02/05 02:30:02;;;;;;;3.20;1.37;;;4.10;90.10;;;;;;5122012;28;20471;-38
2022/02/05 02:32:29;;;;;;;2.50;1.37;;;4.10;90.10;;;;;;5105986;28;20456;-41
2022/02/05 02:35:49;;;;;;;2.90;1.60;;;4.10;90.00;;;;;;5121847;28;20413;-38
2022/02/05 02:38:18;;;;;;;3.93;2.23;;;4.10;90.00;;;;;;5102640;28;20480;-39
2022/02/05 02:41:12;;;;;;;5.10;1.77;;;4.00;90.00;;;;;;5120897;28;20826;-39
2022/02/05 02:43:38;;;;;;;8.90;2.20;;;4.00;89.90;;;;;;5120012;28;20848;-38
2022/02/05 02:46:04;;;;;;;2.80;1.97;;;4.00;89.70;;;;;;5121063;28;20410;-38
2022/02/05 02:48:29;;;;;;;3.37;1.53;;;3.90;89.60;;;;;;5101495;28;20192;-37
2022/02/05 02:56:53;;;;;;;3.27;1.73;;;3.80;89.60;;;;;;5119536;28;20459;-38
2022/02/05 02:59:26;;;;;;;3.90;2.10;;;3.80;89.80;;;;;;5118890;28;20533;-39
2022/02/05 03:02:10;;;;;;;3.70;2.10;;;3.80;90.00;;;;;;5120192;28;20479;-39
2022/02/05 03:04:36;;;;;;;3.50;2.50;;;3.80;90.00;;;;;;5119710;28;20455;-38
2022/02/05 03:07:03;;;;;;;3.70;2.30;;;3.80;90.10;;;;;;5120587;28;20414;-40
2022/02/05 03:09:29;;;;;;;9.33;2.50;;;3.80;90.20;;;;;;5119933;28;20183;-38
2022/02/05 03:11:54;;;;;;;3.83;2.47;;;3.70;90.20;;;;;;5120867;28;20472;-38
2022/02/05 03:14:20;;;;;;;6.37;3.10;;;3.70;90.30;;;;;;5118417;28;20200;-38
2022/02/05 03:16:50;;;;;;;2.77;2.40;;;3.70;90.30;;;;;;5119599;28;20229;-38
2022/02/05 03:19:16;;;;;;;4.73;2.23;;;3.70;90.30;;;;;;5119937;28;20180;-39
2022/02/05 03:21:43;;;;;;;2.60;2.10;;;3.70;90.20;;;;;;5119853;28;20438;-36
2022/02/05 03:24:09;;;;;;;4.13;1.90;;;3.60;90.20;;;;;;5120058;28;20422;-38
2022/02/05 03:26:36;;;;;;;3.17;2.10;;;3.60;90.20;;;;;;5117986;28;20563;-38
2022/02/05 03:29:05;;;;;;;3.53;2.20;;;3.60;90.10;;;;;;5118812;28;20426;-39
2022/02/05 03:31:32;;;;;;;3.80;2.00;;;3.50;90.10;;;;;;5117838;28;20456;-38
2022/02/05 03:33:58;;;;;;;4.00;2.37;;;3.50;90.10;;;;;;5119682;28;20466;-39
2022/02/05 03:36:23;;;;;;;3.17;2.17;;;3.50;90.10;;;;;;5099088;28;20469;-37
2022/02/05 03:38:49;;;;;;;3.43;2.73;;;3.50;90.10;;;;;;5118834;28;20180;-38
2022/02/05 03:41:15;;;;;;;4.83;2.60;;;3.40;90.00;;;;;;5118787;28;20581;-38
2022/02/05 03:43:40;;;;;;;2.77;2.03;;;3.40;90.10;;;;;;5119028;28;20184;-38
2022/02/05 03:46:06;;;;;;;4.30;2.10;;;3.40;90.00;;;;;;5120283;28;20506;-38
2022/02/05 03:48:32;;;;;;;3.70;2.33;;;3.40;90.10;;;;;;5118727;28;20270;-39
2022/02/05 03:50:58;;;;;;;4.80;2.27;;;3.40;90.10;;;;;;5119508;28;20215;-39
2022/02/05 03:53:24;;;;;;;2.10;1.80;;;3.30;90.00;;;;;;5118097;28;20870;-39
2022/02/05 03:55:49;;;;;;;5.27;2.73;;;3.30;90.00;;;;;;5120115;28;20433;-39
2022/02/05 03:58:15;;;;;;;3.10;2.40;;;3.30;90.10;;;;;;5117973;28;20233;-39
2022/02/05 04:00:40;;;;;;;7.87;3.20;;;3.30;90.10;;;;;;5119490;28;20221;-39
2022/02/05 04:03:07;;;;;;;5.47;2.93;;;3.30;90.20;;;;;;5119123;28;20187;-38
2022/02/05 04:05:33;;;;;;;7.57;3.07;;;3.30;90.30;;;;;;5119886;28;20189;-41
2022/02/05 04:07:59;;;;;;;3.90;2.87;;;3.30;90.40;;;;;;5118178;28;20426;-38
2022/02/05 04:10:30;;;;;;;2.97;2.43;;;3.30;90.50;;;;;;5119673;28;20326;-37
2022/02/05 04:18:33;;;;;;;5.10;2.97;;;3.40;90.80;;;;;;5118467;28;20794;-39
2022/02/05 04:20:59;;;;;;;3.30;2.47;;;3.40;91.00;;;;;;5119554;28;20422;-38
2022/02/05 04:23:24;;;;;;;3.83;2.53;;;3.40;91.10;;;;;;5100187;28;20452;-40
2022/02/05 04:25:50;;;;;;;4.13;3.10;;;3.40;91.20;;;;;;5119376;28;20240;-40
2022/02/05 04:28:16;;;;;;;8.03;3.90;;;3.50;91.20;;;;;;5117240;28;20181;-39
2022/02/05 04:30:48;;;;;;;4.07;2.97;;;3.50;91.20;;;;;;5119672;28;20239;-39
2022/02/05 04:33:14;;;;;;;4.83;2.60;;;3.50;91.20;;;;;;5118490;28;20176;-37
2022/02/05 04:35:43;;;;;;;4.13;2.60;;;3.60;91.20;;;;;;5118764;28;20410;-39
2022/02/05 04:38:09;;;;;;;5.50;3.80;;;3.60;91.20;;;;;;5116337;28;20428;-39
2022/02/05 04:40:45;;;;;;;3.10;2.33;;;3.60;91.30;;;;;;5116786;28;20436;-39
2022/02/05 05:07:49;;;;;;;2.93;2.50;;;3.70;90.80;;;;;;5060807;28;20209;-43
2022/02/05 05:19:30;;;;;;;4.47;2.93;;;3.80;90.50;;;;;;5097441;28;20180;-42
2022/02/05 05:21:58;;;;;;;3.80;2.60;;;3.90;90.50;;;;;;5096527;28;20572;-44
2022/02/05 05:24:24;;;;;;;5.13;2.70;;;3.90;90.50;;;;;;5098112;28;20430;-41
2022/02/05 05:26:50;;;;;;;4.57;2.80;;;3.90;90.50;;;;;;5097698;28;20685;-43
2022/02/05 05:29:16;;;;;;;3.73;3.20;;;3.80;90.50;;;;;;5097597;28;20406;-42
2022/02/05 05:31:42;;;;;;;5.37;2.70;;;3.90;90.50;;;;;;5096619;28;20466;-42
2022/02/05 05:34:08;;;;;;;5.23;2.80;;;3.90;90.50;;;;;;5097160;28;20430;-42
2022/02/05 05:36:34;;;;;;;6.03;2.70;;;3.80;90.50;;;;;;5096085;28;20188;-45
2022/02/05 05:39:02;;;;;;;3.70;2.37;;;3.80;90.50;;;;;;5097111;28;20170;-43
2022/02/05 05:41:29;;;;;;;4.50;2.30;;;3.80;90.50;;;;;;5095208;28;20419;-41
2022/02/05 05:49:11;;;;;;;4.07;2.80;;;3.80;90.50;;;;;;5084494;28;20426;-44
2022/02/05 05:51:37;;;;;;;3.40;2.37;;;3.80;90.60;;;;;;5116326;28;20896;-44
2022/02/05 05:54:02;;;;;;;5.90;2.80;;;3.80;90.70;;;;;;5116990;28;20412;-43
2022/02/05 05:56:28;;;;;;;4.27;2.43;;;3.80;90.70;;;;;;5107146;28;20762;-43
2022/02/05 05:58:54;;;;;;;4.53;2.70;;;3.80;90.70;;;;;;5108574;28;20198;-43
2022/02/05 06:01:19;;;;;;;5.67;2.20;;;3.80;90.80;;;;;;5093900;28;20184;-42
2022/02/05 06:03:45;;;;;;;3.63;2.77;;;3.80;90.90;;;;;;5114330;28;20191;-44
2022/02/05 06:06:11;;;;;;;5.90;2.73;;;3.80;91.00;;;;;;5091941;28;20459;-41
2022/02/05 06:08:36;;;;;;;5.50;3.20;;;3.90;91.10;;;;;;5094092;28;20184;-42
2022/02/05 06:11:02;;;;;;;6.63;2.93;;;3.90;91.20;;;;;;5096084;28;20243;-42
2022/02/05 06:13:33;;;;;;;4.93;3.20;;;3.90;91.30;;;;;;5095490;28;20177;-43
2022/02/05 06:15:59;;;;;;;7.53;3.27;;;3.90;91.40;;;;;;5096557;28;20174;-42
2022/02/05 06:18:25;;;;;;;4.20;3.10;;;3.90;91.40;;;;;;5093959;28;20419;-42
2022/02/05 06:20:51;;;;;;;5.57;3.40;;;3.90;91.50;;;;;;5096270;28;20419;-43
2022/02/05 06:23:17;;;;;;;5.37;2.60;;;3.90;91.60;;;;;;5097599;28;20590;-46
2022/02/05 06:25:43;;;;;;;3.50;2.83;;;3.90;91.50;;;;;;5098620;28;20242;-44
2022/02/05 06:28:14;;;;;;;4.87;3.03;;;4.00;91.60;;;;;;5109800;28;20191;-42
2022/02/05 06:30:41;;;;;;;4.10;3.00;;;4.00;91.60;;;;;;5118001;28;20534;-43
2022/02/05 06:33:07;;;;;;;4.63;3.10;;;4.00;91.60;;;;;;5118708;28;20448;-43
2022/02/05 06:35:32;;;;;;;4.27;3.07;;;4.00;91.60;;;;;;5120528;28;20830;-42
2022/02/05 06:37:58;;;;;;;4.80;3.10;;;4.00;91.60;;;;;;5119386;28;20460;-41
2022/02/05 06:40:24;;;;;;;5.27;3.37;;;4.00;91.60;;;;;;5118792;28;20192;-43
2022/02/05 06:42:50;;;;;;;3.63;3.13;;;4.00;91.60;;;;;;5108748;28;20209;-43
2022/02/05 06:45:16;;;;;;;5.40;3.23;;;4.00;91.90;;;;;;5100140;28;20177;-42
2022/02/05 06:47:42;;;;;;;7.07;3.90;;;4.00;91.60;;;;;;5113503;28;20202;-43
2022/02/05 06:50:11;;;;;;;6.13;4.00;;;4.00;91.60;;;;;;5100347;28;20707;-42
2022/02/05 06:52:37;;;;;;;4.57;2.80;;;4.00;91.70;;;;;;5098929;28;20440;-41
2022/02/05 06:55:04;;;;;;;5.57;3.10;;;4.00;91.70;;;;;;5100656;28;20495;-42
2022/02/05 06:57:30;;;;;;;3.30;2.97;;;4.00;91.70;;;;;;5098369;28;20582;-42
2022/02/05 06:59:55;;;;;;;4.93;2.73;;;4.00;91.70;;;;;;5109815;28;20448;-42
2022/02/05 07:02:21;;;;;;;4.10;3.03;;;4.00;91.70;;;;;;5114271;28;20434;-43
2022/02/05 07:04:47;;;;;;;3.27;2.77;;;4.00;91.70;;;;;;5108186;28;20555;-42
2022/02/05 07:07:13;;;;;;;3.83;3.23;;;4.10;91.60;;;;;;5096877;28;20427;-43
2022/02/05 07:09:39;;;;;;;3.97;3.00;;;4.10;91.60;;;;;;5098785;28;20437;-43
2022/02/05 07:12:09;;;;;;;4.70;2.70;;;4.00;91.50;;;;;;5115065;28;20228;-42
2022/02/05 07:14:41;;;;;;;4.93;3.93;;;4.10;91.50;;;;;;5120292;28;20409;-42
2022/02/05 07:17:23;;;;;;;6.93;2.93;;;4.10;91.50;;;;;;5117497;28;20436;-41
2022/02/05 07:20:02;;;;;;;7.40;3.40;;;4.10;91.40;;;;;;5098283;28;20422;-42
2022/02/05 07:22:33;;;;;;;4.20;3.17;;;4.20;91.40;;;;;;5096323;28;20415;-42
2022/02/05 07:30:32;;;;;;;4.10;2.60;;;4.60;90.90;;;;;;5095146;28;20476;-42
2022/02/05 07:32:58;;;;;;;6.70;2.33;;;4.80;90.70;;;;;;5097227;28;20415;-42
2022/02/05 07:35:25;;;;;;;5.93;3.00;;;5.00;90.50;;;;;;5096359;28;20726;-41
2022/02/05 07:37:53;;;;;;;3.80;2.40;;;5.20;90.20;;;;;;5099925;28;20187;-42
2022/02/05 07:40:19;;;;;;;4.60;3.10;;;5.40;90.00;;;;;;5095821;28;20446;-43
2022/02/05 07:42:45;;;;;;;3.43;2.20;;;5.60;89.40;;;;;;5118468;28;20900;-41
2022/02/05 07:45:10;;;;;;;2.50;2.30;;;5.80;88.70;;;;;;5118210;28;20429;-41
2022/02/05 07:47:36;;;;;;;3.80;2.50;;;6.00;88.10;;;;;;5119605;28;20560;-44
2022/02/05 07:50:05;;;;;;;4.90;2.40;;;6.20;87.30;;;;;;5117781;28;20480;-41
2022/02/05 07:52:31;;;;;;;3.63;2.40;;;6.40;86.70;;;;;;5119447;28;20634;-42
2022/02/05 07:54:58;;;;;;;3.43;2.43;;;6.60;86.00;;;;;;5117233;28;20421;-41
2022/02/05 07:57:23;;;;;;;2.67;2.27;;;6.80;85.00;;;;;;5119975;28;20260;-41
2022/02/05 07:59:49;;;;;;;4.47;1.87;;;7.00;85.10;;;;;;5117683;28;20446;-43
2022/02/05 08:02:18;;;;;;;4.57;2.70;;;7.20;83.60;;;;;;5119174;28;20180;-43
2022/02/05 08:04:43;;;;;;;4.33;2.37;;;7.50;82.40;;;;;;5113792;28;20228;-41
2022/02/05 08:07:09;;;;;;;4.17;2.50;;;7.70;81.50;;;;;;5106984;28;20742;-42
2022/02/05 08:09:54;;;;;;;2.43;2.10;;;7.90;80.50;;;;;;5105507;28;20485;-41
2022/02/05 08:12:20;;;;;;;5.63;2.90;;;8.20;79.70;;;;;;5107948;28;20249;-42
2022/02/05 08:14:49;;;;;;;5.37;2.40;;;8.50;78.80;;;;;;5115538;28;20437;-41
2022/02/05 08:17:37;;;;;;;2.93;2.17;;;8.70;77.50;;;;;;5117335;28;20821;-41
2022/02/05 08:20:13;;;;;;;5.80;2.60;;;9.00;76.20;;;;;;5117168;28;20866;-42
2022/02/05 08:22:38;;;;;;;3.73;2.30;;;9.20;75.30;;;;;;5098774;28;20906;-41
2022/02/05 08:25:04;;;;;;;4.50;2.20;;;9.40;74.20;;;;;;5097410;28;20529;-42
2022/02/05 08:27:30;;;;;;;3.50;2.00;;;9.60;73.50;;;;;;5098055;28;20177;-43
2022/02/05 08:30:02;;;;;;;4.33;2.83;;;9.80;73.30;;;;;;5097296;28;20182;-41
2022/02/05 08:32:29;;;;;;;4.90;2.13;;;10.00;71.40;;;;;;5096646;28;20262;-43
2022/02/05 08:34:59;;;;;;;5.27;2.20;;;10.30;70.80;;;;;;5102651;28;20504;-42
2022/02/05 08:37:26;;;;;;;4.47;2.20;;;10.70;70.10;;;;;;5116341;28;20852;-42
2022/02/05 08:39:52;;;;;;;3.27;1.53;;;11.00;68.60;;;;;;5090576;28;20782;-41
2022/02/05 08:42:21;;;;;;;3.40;1.80;;;11.20;67.90;;;;;;5116851;28;20437;-42
2022/02/05 08:44:48;;;;;;;4.30;1.90;;;11.60;66.80;;;;;;5116993;28;20203;-43
2022/02/05 08:47:15;;;;;;;2.53;1.80;;;11.90;65.80;;;;;;5105471;28;20431;-43
2022/02/05 08:49:55;;;;;;;3.27;2.00;;;12.30;64.50;;;;;;5117298;28;20408;-42
2022/02/05 08:52:21;;;;;;;3.70;1.90;;;12.80;62.50;;;;;;5116480;28;20425;-42
2022/02/05 08:54:47;;;;;;;3.77;1.60;;;13.30;60.20;;;;;;5117184;28;20417;-43
2022/02/05 08:57:12;;;;;;;4.77;2.07;;;13.70;59.00;;;;;;5116039;28;20190;-42
2022/02/05 09:02:42;;;;;;;3.20;1.77;;;14.50;56.90;;;;;;5115247;28;20272;-43
2022/02/05 09:05:12;;;;;;;3.37;2.20;;;14.90;55.90;;;;;;5115549;28;20439;-44
2022/02/05 09:07:40;;;;;;;3.60;1.90;;;15.30;54.00;;;;;;5114208;28;20447;-46
2022/02/05 09:13:35;;;;;;;3.20;1.80;;;16.10;52.50;;;;;;5114624;28;20457;-44
2022/02/05 09:15:58;;;;;;;4.27;2.00;;;16.50;50.90;;;;;;5114616;28;20443;-43
2022/02/05 09:18:27;;;;;;;4.87;2.67;;;16.90;49.20;;;;;;5116499;28;20825;-43
2022/02/05 09:20:55;;;;;;;2.73;1.63;;;17.00;48.50;;;;;;5114943;28;20268;-43
2022/02/05 09:23:20;;;;;;;5.30;1.80;;;17.30;47.50;;;;;;5115657;28;20404;-43
2022/02/05 09:25:46;;;;;;;3.00;1.80;;;17.60;46.50;;;;;;5113994;28;20414;-44
2022/02/05 09:28:12;;;;;;;4.60;1.70;;;17.80;45.50;;;;;;5115361;28;20238;-42
2022/02/05 09:33:23;;;;;;;6.27;2.20;;;18.10;45.30;;;;;;5113250;28;20822;-44
2022/02/05 09:35:48;;;;;;;20.77;4.10;;;19.00;70.40;;;;;;5113488;28;20421;-45
2022/02/05 09:38:14;;;;;;;6.97;3.20;;;19.80;69.10;;;;;;5116388;28;20436;-45
2022/02/05 09:40:40;;;;;;;5.80;2.50;;;20.30;66.20;;;;;;5129199;28;20275;-46
2022/02/05 09:43:05;;;;;;;4.43;2.20;;;21.00;62.30;;;;;;5114602;28;20214;-41
2022/02/05 09:45:35;;;;;;;8.17;2.53;;;21.60;56.50;;;;;;5114318;28;20228;-41
2022/02/05 09:48:02;;;;;;;5.10;2.40;;;21.60;53.30;;;;;;5115295;28;20183;-41
2022/02/05 09:50:28;;;;;;;5.87;2.23;;;21.50;51.00;;;;;;5096555;28;20472;-41
2022/02/05 09:52:56;;;;;;;4.40;1.90;;;21.60;49.70;;;;;;5114362;28;20770;-43
2022/02/05 09:55:22;;;;;;;5.10;2.47;;;21.80;50.20;;;;;;5113220;28;20560;-43
2022/02/05 09:57:47;;;;;;;7.10;2.43;;;21.50;49.90;;;;;;5119296;28;20841;-41
2022/02/05 10:00:27;;;;;;;3.83;2.00;;;21.20;49.90;;;;;;5118532;28;20424;-44
2022/02/05 10:02:56;;;;;;;3.20;2.10;;;21.00;50.30;;;;;;5115428;28;20182;-42
2022/02/05 10:05:29;;;;;;;3.00;1.47;;;21.30;49.60;;;;;;5120355;28;20450;-42
2022/02/05 10:08:08;;;;;;;5.13;1.80;;;21.70;48.30;;;;;;5101436;28;20425;-42
2022/02/05 10:10:46;;;;;;;6.77;2.00;;;22.00;47.90;;;;;;5102623;28;20513;-41
2022/02/05 10:13:16;;;;;;;2.67;1.93;;;22.10;46.50;;;;;;5120795;28;20532;-42
2022/02/05 10:15:42;;;;;;;3.23;1.47;;;22.00;44.90;;;;;;5117436;28;20516;-47
2022/02/05 10:18:22;;;;;;;4.13;1.60;;;21.70;42.80;;;;;;5118964;28;20468;-44
2022/02/05 10:20:48;;;;;;;3.10;1.60;;;21.40;42.50;;;;;;5118986;28;20449;-44
2022/02/05 10:23:14;;;;;;;4.30;1.50;;;21.60;40.10;;;;;;5119505;28;20444;-43
2022/02/05 10:25:40;;;;;;;3.73;1.50;;;21.80;38.50;;;;;;5115310;28;20530;-42
2022/02/05 10:28:10;;;;;;;4.90;1.70;;;21.60;37.90;;;;;;5116585;28;20339;-42
2022/02/05 10:30:40;;;;;;;4.13;1.40;;;21.70;37.00;;;;;;5098202;28;20453;-42
2022/02/05 10:33:15;;;;;;;2.30;1.27;;;21.60;36.30;;;;;;5082072;28;20472;-43
2022/02/05 10:36:02;;;;;;;2.10;1.20;;;21.50;35.70;;;;;;5117698;28;20410;-42
2022/02/05 10:43:48;;;;;;;3.47;1.87;;;20.90;35.30;;;;;;5117390;28;20506;-42
2022/02/05 10:46:14;;;;;;;2.97;1.80;;;20.40;35.40;;;;;;5100338;28;20442;-45
2022/02/05 10:48:41;;;;;;;2.40;1.40;;;20.30;35.60;;;;;;5098890;28;20198;-42
2022/02/05 10:51:07;;;;;;;3.57;1.70;;;20.40;35.70;;;;;;5119281;28;20206;-45
2022/02/05 10:53:43;;;;;;;3.37;1.63;;;20.20;35.80;;;;;;5118953;28;20430;-40
2022/02/05 10:56:25;;;;;;;3.20;1.30;;;20.70;35.70;;;;;;5117688;28;20608;-44
2022/02/05 10:59:28;;;;;;;5.60;1.77;;;21.20;35.60;;;;;;5116446;28;20414;-45
2022/02/05 11:07:29;;;;;;;3.17;1.30;;;21.70;34.10;;;;;;5116639;28;20527;-43
2022/02/05 11:09:59;;;;;;;3.07;1.20;;;21.50;36.60;;;;;;5099856;28;20467;-44
2022/02/05 11:18:08;;;;;;;2.13;1.00;;;20.80;34.10;;;;;;5118635;28;20421;-42
2022/02/05 11:20:38;;;;;;;4.13;1.37;;;21.10;34.10;;;;;;5118627;28;20472;-43
2022/02/05 11:23:10;;;;;;;3.40;1.33;;;21.00;34.10;;;;;;5117699;28;20459;-43
2022/02/05 11:25:39;;;;;;;2.03;1.17;;;20.90;34.00;;;;;;5101648;28;20194;-42
2022/02/05 11:28:06;;;;;;;3.30;1.17;;;21.00;33.80;;;;;;5117238;28;20445;-41
2022/02/05 11:30:46;;;;;;;1.87;1.07;;;21.40;33.70;;;;;;5118703;28;20462;-42
2022/02/05 11:33:31;;;;;;;4.40;1.40;;;21.80;33.70;;;;;;5115538;28;20771;-43
2022/02/05 11:38:57;;;;;;;2.70;1.40;;;23.20;32.90;;;;;;5115980;28;20414;-42
2022/02/05 11:41:29;;;;;;;3.80;1.63;;;24.20;32.40;;;;;;5116800;28;20413;-43
2022/02/05 11:44:13;;;;;;;2.40;1.40;;;25.00;31.80;;;;;;5117006;28;20438;-44
2022/02/05 11:46:40;;;;;;;2.90;1.47;;;25.80;31.00;;;;;;5114172;28;20421;-42
2022/02/05 11:49:06;;;;;;;2.60;1.37;;;26.40;29.80;;;;;;5118747;28;20437;-43
2022/02/05 11:51:36;;;;;;;4.40;1.70;;;26.80;29.70;;;;;;5116493;28;20911;-44
2022/02/05 11:54:05;;;;;;;4.23;1.50;;;27.30;29.20;;;;;;5101025;28;20438;-44
2022/02/05 11:57:01;;;;;;;2.90;1.60;;;27.50;28.80;;;;;;5097248;28;20414;-43
2022/02/05 11:59:54;;;;;;;3.00;1.60;;;27.30;28.50;;;;;;5116980;28;20411;-43
2022/02/05 12:02:22;;;;;;;2.33;1.23;;;27.60;28.20;;;;;;5115099;28;20434;-43
2022/02/05 12:05:10;;;;;;;2.63;1.00;;;28.20;28.20;;;;;;5115699;28;20453;-44
2022/02/05 12:07:58;;;;;;;2.77;1.30;;;28.40;27.30;;;;;;5118982;28;20426;-42
2022/02/05 12:10:51;;;;;;;2.87;1.20;;;28.80;27.10;;;;;;5116046;28;20475;-43
2022/02/05 12:13:30;;;;;;;2.83;1.10;;;29.20;28.50;;;;;;5118662;28;20449;-45
2022/02/05 12:16:09;;;;;;;3.23;1.53;;;29.70;28.80;;;;;;5117863;28;20457;-44
2022/02/05 12:19:13;;;;;;;4.07;1.23;;;30.10;28.20;;;;;;5114027;28;20407;-44
2022/02/05 12:21:53;;;;;;;3.83;1.40;;;30.50;28.00;;;;;;5097818;28;20460;-43
2022/02/05 12:24:38;;;;;;;2.83;1.40;;;30.80;27.30;;;;;;5097356;28;20481;-43
2022/02/05 12:27:32;;;;;;;3.03;1.33;;;30.90;27.60;;;;;;5116532;28;20423;-44
2022/02/05 12:30:38;;;;;;;3.37;1.40;;;31.20;27.30;;;;;;5095239;28;20772;-42
2022/02/05 12:33:06;;;;;;;1.70;1.10;;;31.30;26.60;;;;;;5115004;28;20418;-43
2022/02/05 12:35:33;;;;;;;3.87;0.90;;;31.30;26.80;;;;;;5115403;28;20829;-43
2022/02/05 12:38:04;;;;;;;2.87;1.30;;;31.40;26.70;;;;;;5116108;28;20412;-44
2022/02/05 12:40:30;;;;;;;2.53;1.70;;;31.30;26.10;;;;;;5114598;28;20554;-45
2022/02/05 12:42:57;;;;;;;2.27;1.03;;;31.40;26.30;;;;;;5117011;28;20487;-44
2022/02/05 12:45:51;;;;;;;2.73;1.30;;;31.50;26.50;;;;;;5114425;28;20869;-42
2022/02/05 12:48:22;;;;;;;2.13;1.33;;;31.70;26.30;;;;;;5107979;28;20431;-43
2022/02/05 12:50:49;;;;;;;2.13;1.10;;;31.70;25.60;;;;;;5109770;28;20510;-42
2022/02/05 12:53:15;;;;;;;1.97;1.00;;;31.50;25.60;;;;;;5097710;28;20435;-42
2022/02/05 12:55:50;;;;;;;3.83;1.20;;;31.50;25.60;;;;;;5093620;28;20437;-45
2022/02/05 12:58:19;;;;;;;2.00;1.10;;;31.50;25.50;;;;;;5093637;28;20433;-44
2022/02/05 13:00:45;;;;;;;2.93;0.90;;;31.40;25.60;;;;;;5094521;28;20495;-43
2022/02/05 13:03:27;;;;;;;3.53;1.20;;;31.20;25.80;;;;;;5093091;28;20846;-46
2022/02/05 13:05:52;;;;;;;5.30;1.37;;;31.40;25.70;;;;;;5092680;28;20184;-44
2022/02/05 13:08:18;;;;;;;1.80;1.10;;;31.50;25.50;;;;;;5090768;28;20395;-43
2022/02/05 13:10:46;;;;;;;1.50;0.80;;;31.60;24.90;;;;;;5094617;28;20232;-42
2022/02/05 13:13:12;;;;;;;1.90;1.00;;;31.90;24.50;;;;;;5093631;28;20399;-44
2022/02/05 13:15:39;;;;;;;3.80;2.00;;;32.00;23.80;;;;;;5094643;28;20482;-45
2022/02/05 13:18:20;;;;;;;2.33;1.50;;;32.10;24.00;;;;;;5095833;28;20421;-43
2022/02/05 13:26:27;;;;;;;4.73;1.93;;;32.50;23.50;;;;;;5094591;28;20462;-44
2022/02/05 13:34:17;;;;;;;2.20;1.20;;;32.70;23.60;;;;;;5098581;28;20397;-42
2022/02/05 13:42:17;;;;;;;2.20;1.10;;;32.80;23.50;;;;;;5097400;28;20474;-44
2022/02/05 13:45:03;;;;;;;4.83;1.40;;;32.90;23.40;;;;;;5098746;28;20420;-44
2022/02/05 13:47:29;;;;;;;2.27;1.40;;;32.50;23.90;;;;;;5097647;28;20404;-44
2022/02/05 13:50:14;;;;;;;1.70;1.20;;;32.50;23.80;;;;;;5097940;28;20697;-44
2022/02/05 13:52:51;;;;;;;2.37;1.03;;;32.50;23.80;;;;;;5097173;28;20518;-45
2022/02/05 13:55:21;;;;;;;2.50;1.47;;;32.50;23.90;;;;;;5097539;28;20396;-44
2022/02/05 13:58:09;;;;;;;2.93;1.27;;;32.60;23.70;;;;;;5095491;28;20455;-44
2022/02/05 14:00:52;;;;;;;2.73;1.17;;;32.70;23.60;;;;;;5098265;28;20576;-43
2022/02/05 14:03:29;;;;;;;3.03;1.40;;;32.70;23.70;;;;;;5096935;28;20534;-43
2022/02/05 14:06:16;;;;;;;2.57;1.10;;;32.80;23.30;;;;;;5098411;28;20416;-46
2022/02/05 14:08:44;;;;;;;1.80;1.30;;;32.70;23.10;;;;;;5097562;28;20712;-49
2022/02/05 14:11:13;;;;;;;3.67;1.37;;;32.50;23.30;;;;;;5097875;28;20469;-41
2022/02/05 14:13:40;;;;;;;3.37;1.30;;;31.80;23.30;;;;;;5096769;28;20463;-42
2022/02/05 14:16:07;;;;;;;2.17;1.20;;;31.10;23.90;;;;;;5098859;28;20418;-42
2022/02/05 14:18:48;;;;;;;2.30;1.03;;;30.60;23.60;;;;;;5094720;28;20533;-43
2022/02/05 14:21:13;;;;;;;2.70;1.30;;;30.40;23.80;;;;;;5096173;28;20767;-44
2022/02/05 14:23:53;;;;;;;3.17;1.27;;;30.00;24.00;;;;;;5094773;28;20532;-44
2022/02/05 14:26:27;;;;;;;2.00;1.20;;;29.60;24.30;;;;;;5098665;28;20265;-43
2022/02/05 14:29:12;;;;;;;1.87;1.10;;;28.70;24.50;;;;;;5094820;28;20493;-43
2022/02/05 14:31:45;;;;;;;2.80;1.33;;;28.30;25.40;;;;;;5095571;28;20527;-42
2022/02/05 14:34:23;;;;;;;4.17;1.27;;;28.50;25.50;;;;;;5095762;28;20186;-43
2022/02/05 14:42:10;;;;;;;3.00;1.40;;;29.40;25.00;;;;;;5096073;28;20768;-42
2022/02/05 14:44:37;;;;;;;2.37;1.20;;;29.70;24.80;;;;;;5093866;28;20493;-43
2022/02/05 14:47:04;;;;;;;4.30;1.50;;;29.90;24.80;;;;;;5096954;28;20571;-43
2022/02/05 14:49:30;;;;;;;3.00;1.43;;;30.00;24.90;;;;;;5094790;28;20467;-43
2022/02/05 14:52:01;;;;;;;4.30;1.50;;;30.10;24.80;;;;;;5098160;28;20520;-43
2022/02/05 14:54:26;;;;;;;2.30;1.43;;;30.10;24.60;;;;;;5095494;28;20178;-43
2022/02/05 14:56:52;;;;;;;3.53;1.33;;;29.70;24.80;;;;;;5097197;28;20599;-43
2022/02/05 14:59:18;;;;;;;4.90;1.37;;;29.50;25.00;;;;;;5096538;28;20273;-44
2022/02/05 15:01:43;;;;;;;2.83;1.30;;;29.30;25.10;;;;;;5097096;28;20221;-45
2022/02/05 15:04:09;;;;;;;4.00;1.60;;;29.10;25.10;;;;;;5077956;28;20180;-41
2022/02/05 15:06:36;;;;;;;2.87;1.47;;;29.00;25.40;;;;;;5096469;28;20467;-43
2022/02/05 15:09:06;;;;;;;3.17;1.57;;;28.60;25.80;;;;;;5095700;28;20179;-42
2022/02/05 15:11:32;;;;;;;2.90;1.33;;;28.30;25.70;;;;;;5080369;28;20479;-43
2022/02/05 15:14:01;;;;;;;3.40;1.40;;;28.10;26.00;;;;;;5078586;28;20694;-42
2022/02/05 15:16:28;;;;;;;3.20;1.20;;;27.80;26.10;;;;;;5098119;28;20429;-42
2022/02/05 15:18:57;;;;;;;2.07;1.10;;;27.50;26.50;;;;;;5096924;28;20716;-42
2022/02/05 15:21:27;;;;;;;3.47;1.10;;;27.30;26.50;;;;;;5077890;28;20472;-43
2022/02/05 15:23:53;;;;;;;3.27;1.10;;;26.90;26.60;;;;;;5096254;28;20411;-45
2022/02/05 15:26:20;;;;;;;1.97;1.20;;;26.70;26.70;;;;;;5093179;28;20855;-43
2022/02/05 15:28:47;;;;;;;1.83;1.00;;;26.50;26.80;;;;;;5077943;28;20477;-44
2022/02/05 15:31:13;;;;;;;3.20;1.97;;;26.20;26.70;;;;;;5093175;28;20431;-43
2022/02/05 15:33:51;;;;;;;3.03;2.27;;;25.90;27.30;;;;;;5093903;28;20812;-43
2022/02/05 15:36:26;;;;;;;3.80;3.20;;;25.60;27.70;;;;;;5092802;28;20468;-45
2022/02/05 15:44:03;;;;;;;5.83;2.73;;;24.40;28.30;;;;;;5096502;28;20221;-44
2022/02/05 15:46:28;;;;;;;6.33;2.60;;;23.90;29.20;;;;;;5078050;28;20943;-43
2022/02/05 15:48:54;;;;;;;2.60;2.03;;;23.60;29.00;;;;;;5096047;28;20519;-43
2022/02/05 15:51:21;;;;;;;2.60;1.93;;;23.30;29.50;;;;;;5076219;28;20212;-42
2022/02/05 15:53:52;;;;;;;3.30;2.00;;;23.00;29.00;;;;;;5096904;28;20191;-43
2022/02/05 15:59:06;;;;;;;2.90;1.30;;;22.10;27.20;;;;;;5102759;28;20428;-43
2022/02/05 16:01:31;;;;;;;2.23;1.33;;;21.30;27.30;;;;;;5107918;28;20972;-43
2022/02/05 16:03:57;;;;;;;3.63;1.57;;;20.70;27.50;;;;;;5098090;28;20529;-44
2022/02/05 16:06:23;;;;;;;3.43;1.43;;;20.00;27.80;;;;;;5095767;28;20216;-41
2022/02/05 16:08:49;;;;;;;2.10;1.47;;;19.30;28.10;;;;;;5100707;28;20460;-41
2022/02/05 16:11:17;;;;;;;3.30;1.57;;;18.70;28.60;;;;;;5095193;28;20282;-43
2022/02/05 16:13:46;;;;;;;2.53;1.60;;;18.00;29.00;;;;;;5095741;28;20514;-41
2022/02/05 16:16:12;;;;;;;2.33;1.67;;;17.40;29.40;;;;;;5104796;28;20437;-41
2022/02/05 16:18:44;;;;;;;5.30;2.40;;;16.90;29.70;;;;;;5116657;28;20428;-41
2022/02/05 16:21:20;;;;;;;3.70;2.50;;;16.40;31.70;;;;;;5115148;28;20476;-41
2022/02/05 16:23:50;;;;;;;6.00;2.50;;;16.00;33.00;;;;;;5116259;28;20413;-40